sensor_id;sensor_type;location;lat;lon;timestamp;P1;durP1;ratioP1;P2;durP2;ratioP2
44068;SDS011;29738;51.234;5.484;2023-04-01T00:01:09;6.30;;;1.45;;
44068;SDS011;29738;51.234;5.484;2023-04-01T00:03:41;4.38;;;1.23;;
44068;SDS011;29738;51.234;5.484;2023-04-01T00:06:11;5.50;;;1.27;;
44068;SDS011;29738;51.234;5.484;2023-04-01T00:08:39;3.17;;;1.00;;
44068;SDS011;29738;51.234;5.484;2023-04-01T00:11:05;3.70;;;1.38;;
44068;SDS011;29738;51.234;5.484;2023-04-01T00:13:31;5.10;;;1.20;;
44068;SDS011;29738;51.234;5.484;2023-04-01T00:16:00;2.63;;;1.08;;
44068;SDS011;29738;51.234;5.484;2023-04-01T00:18:29;4.82;;;1.17;;
44068;SDS011;29738;51.234;5.484;2023-04-01T00:20:55;2.55;;;0.80;;
44068;SDS011;29738;51.234;5.484;2023-04-01T00:23:21;3.60;;;0.98;;
44068;SDS011;29738;51.234;5.484;2023-04-01T00:26:02;3.78;;;1.10;;
44068;SDS011;29738;51.234;5.484;2023-04-01T00:28:28;4.63;;;1.63;;
44068;SDS011;29738;51.234;5.484;2023-04-01T00:30:55;6.13;;;1.77;;
44068;SDS011;29738;51.234;5.484;2023-04-01T00:33:21;4.60;;;1.25;;
44068;SDS011;29738;51.234;5.484;2023-04-01T00:35:47;4.80;;;1.35;;
44068;SDS011;29738;51.234;5.484;2023-04-01T00:38:13;3.83;;;1.25;;
44068;SDS011;29738;51.234;5.484;2023-04-01T00:40:41;5.70;;;1.35;;
44068;SDS011;29738;51.234;5.484;2023-04-01T00:43:16;4.57;;;1.08;;
44068;SDS011;29738;51.234;5.484;2023-04-01T00:45:44;3.40;;;1.20;;
44068;SDS011;29738;51.234;5.484;2023-04-01T00:48:21;3.55;;;1.42;;
44068;SDS011;29738;51.234;5.484;2023-04-01T00:53:47;3.33;;;1.10;;
44068;SDS011;29738;51.234;5.484;2023-04-01T00:56:33;3.75;;;1.20;;
44068;SDS011;29738;51.234;5.484;2023-04-01T00:59:13;3.17;;;1.20;;
44068;SDS011;29738;51.234;5.484;2023-04-01T01:01:41;5.07;;;1.20;;
44068;SDS011;29738;51.234;5.484;2023-04-01T01:04:21;2.63;;;1.02;;
44068;SDS011;29738;51.234;5.484;2023-04-01T01:07:11;4.25;;;1.10;;
44068;SDS011;29738;51.234;5.484;2023-04-01T01:12:31;2.00;;;0.85;;
44068;SDS011;29738;51.234;5.484;2023-04-01T01:15:12;3.35;;;1.30;;
44068;SDS011;29738;51.234;5.484;2023-04-01T01:26:54;3.58;;;1.52;;
44068;SDS011;29738;51.234;5.484;2023-04-01T01:37:33;2.20;;;1.02;;
44068;SDS011;29738;51.234;5.484;2023-04-01T01:40:01;5.07;;;1.55;;
44068;SDS011;29738;51.234;5.484;2023-04-01T01:42:30;2.58;;;1.02;;
44068;SDS011;29738;51.234;5.484;2023-04-01T01:44:58;4.10;;;1.02;;
44068;SDS011;29738;51.234;5.484;2023-04-01T01:47:27;3.33;;;1.13;;
44068;SDS011;29738;51.234;5.484;2023-04-01T01:49:57;3.97;;;1.25;;
44068;SDS011;29738;51.234;5.484;2023-04-01T01:52:34;4.70;;;1.70;;
44068;SDS011;29738;51.234;5.484;2023-04-01T01:55:03;4.13;;;1.35;;
44068;SDS011;29738;51.234;5.484;2023-04-01T01:57:48;5.00;;;1.73;;
44068;SDS011;29738;51.234;5.484;2023-04-01T02:00:18;4.65;;;1.75;;
44068;SDS011;29738;51.234;5.484;2023-04-01T02:02:47;6.22;;;1.67;;
44068;SDS011;29738;51.234;5.484;2023-04-01T02:05:16;5.78;;;1.85;;
44068;SDS011;29738;51.234;5.484;2023-04-01T02:07:46;5.65;;;2.00;;
44068;SDS011;29738;51.234;5.484;2023-04-01T02:10:30;5.28;;;1.88;;
44068;SDS011;29738;51.234;5.484;2023-04-01T02:13:13;4.28;;;1.65;;
44068;SDS011;29738;51.234;5.484;2023-04-01T02:15:51;7.38;;;1.90;;
44068;SDS011;29738;51.234;5.484;2023-04-01T02:18:20;5.78;;;1.67;;
44068;SDS011;29738;51.234;5.484;2023-04-01T02:20:47;4.20;;;1.38;;
44068;SDS011;29738;51.234;5.484;2023-04-01T02:23:14;5.53;;;2.20;;
44068;SDS011;29738;51.234;5.484;2023-04-01T02:25:41;7.43;;;2.58;;
44068;SDS011;29738;51.234;5.484;2023-04-01T02:28:18;5.32;;;1.92;;
44068;SDS011;29738;51.234;5.484;2023-04-01T02:30:45;5.82;;;2.47;;
44068;SDS011;29738;51.234;5.484;2023-04-01T02:33:15;6.90;;;2.45;;
44068;SDS011;29738;51.234;5.484;2023-04-01T02:35:41;4.65;;;1.83;;
44068;SDS011;29738;51.234;5.484;2023-04-01T02:38:07;10.15;;;2.50;;
44068;SDS011;29738;51.234;5.484;2023-04-01T02:40:45;8.00;;;2.63;;
44068;SDS011;29738;51.234;5.484;2023-04-01T02:43:13;6.07;;;2.58;;
44068;SDS011;29738;51.234;5.484;2023-04-01T02:45:46;6.93;;;3.33;;
44068;SDS011;29738;51.234;5.484;2023-04-01T02:48:12;7.63;;;2.47;;
44068;SDS011;29738;51.234;5.484;2023-04-01T02:50:41;7.15;;;3.42;;
44068;SDS011;29738;51.234;5.484;2023-04-01T02:53:07;8.20;;;3.53;;
44068;SDS011;29738;51.234;5.484;2023-04-01T02:55:36;7.88;;;2.85;;
44068;SDS011;29738;51.234;5.484;2023-04-01T02:58:04;6.50;;;3.10;;
44068;SDS011;29738;51.234;5.484;2023-04-01T03:00:30;8.15;;;3.10;;
44068;SDS011;29738;51.234;5.484;2023-04-01T03:02:56;7.32;;;3.13;;
44068;SDS011;29738;51.234;5.484;2023-04-01T03:05:31;8.73;;;3.42;;
44068;SDS011;29738;51.234;5.484;2023-04-01T03:07:57;6.78;;;3.25;;
44068;SDS011;29738;51.234;5.484;2023-04-01T03:10:23;10.70;;;3.30;;
44068;SDS011;29738;51.234;5.484;2023-04-01T03:12:49;9.27;;;3.28;;
44068;SDS011;29738;51.234;5.484;2023-04-01T03:15:15;7.80;;;2.90;;
44068;SDS011;29738;51.234;5.484;2023-04-01T03:17:51;8.35;;;3.38;;
44068;SDS011;29738;51.234;5.484;2023-04-01T03:20:17;6.22;;;2.10;;
44068;SDS011;29738;51.234;5.484;2023-04-01T03:22:52;5.15;;;2.40;;
44068;SDS011;29738;51.234;5.484;2023-04-01T03:25:18;7.65;;;2.40;;
44068;SDS011;29738;51.234;5.484;2023-04-01T03:27:44;7.13;;;3.03;;
44068;SDS011;29738;51.234;5.484;2023-04-01T03:30:12;7.22;;;3.17;;
44068;SDS011;29738;51.234;5.484;2023-04-01T03:32:38;6.55;;;2.78;;
44068;SDS011;29738;51.234;5.484;2023-04-01T03:35:04;7.38;;;3.28;;
44068;SDS011;29738;51.234;5.484;2023-04-01T03:37:30;7.47;;;3.05;;
44068;SDS011;29738;51.234;5.484;2023-04-01T03:39:57;8.32;;;3.38;;
44068;SDS011;29738;51.234;5.484;2023-04-01T03:42:22;8.50;;;2.97;;
44068;SDS011;29738;51.234;5.484;2023-04-01T03:44:48;8.77;;;3.47;;
44068;SDS011;29738;51.234;5.484;2023-04-01T03:47:14;9.05;;;3.80;;
44068;SDS011;29738;51.234;5.484;2023-04-01T03:49:40;9.07;;;4.05;;
44068;SDS011;29738;51.234;5.484;2023-04-01T03:52:08;8.02;;;4.10;;
44068;SDS011;29738;51.234;5.484;2023-04-01T03:54:35;6.90;;;2.47;;
44068;SDS011;29738;51.234;5.484;2023-04-01T03:57:01;7.57;;;3.60;;
44068;SDS011;29738;51.234;5.484;2023-04-01T03:59:30;9.35;;;3.22;;
44068;SDS011;29738;51.234;5.484;2023-04-01T04:01:56;8.27;;;3.80;;
44068;SDS011;29738;51.234;5.484;2023-04-01T04:04:22;7.47;;;3.42;;
44068;SDS011;29738;51.234;5.484;2023-04-01T04:06:49;8.55;;;3.25;;
44068;SDS011;29738;51.234;5.484;2023-04-01T04:09:17;5.97;;;2.83;;
44068;SDS011;29738;51.234;5.484;2023-04-01T04:11:43;8.77;;;3.83;;
44068;SDS011;29738;51.234;5.484;2023-04-01T04:14:19;9.93;;;4.53;;
44068;SDS011;29738;51.234;5.484;2023-04-01T04:16:45;12.02;;;4.95;;
44068;SDS011;29738;51.234;5.484;2023-04-01T04:19:11;8.00;;;3.65;;
44068;SDS011;29738;51.234;5.484;2023-04-01T04:21:37;9.90;;;3.58;;
44068;SDS011;29738;51.234;5.484;2023-04-01T04:24:05;13.20;;;5.05;;
44068;SDS011;29738;51.234;5.484;2023-04-01T04:26:31;9.80;;;5.10;;
44068;SDS011;29738;51.234;5.484;2023-04-01T04:28:57;11.15;;;5.88;;
44068;SDS011;29738;51.234;5.484;2023-04-01T04:31:23;8.60;;;3.97;;
44068;SDS011;29738;51.234;5.484;2023-04-01T04:33:50;11.80;;;5.13;;
44068;SDS011;29738;51.234;5.484;2023-04-01T04:36:17;10.43;;;4.97;;
44068;SDS011;29738;51.234;5.484;2023-04-01T04:38:43;9.55;;;4.10;;
44068;SDS011;29738;51.234;5.484;2023-04-01T04:41:16;8.90;;;3.72;;
44068;SDS011;29738;51.234;5.484;2023-04-01T04:43:48;12.00;;;5.35;;
44068;SDS011;29738;51.234;5.484;2023-04-01T04:46:16;8.75;;;4.65;;
44068;SDS011;29738;51.234;5.484;2023-04-01T04:48:42;9.05;;;3.95;;
44068;SDS011;29738;51.234;5.484;2023-04-01T04:51:11;10.80;;;5.35;;
44068;SDS011;29738;51.234;5.484;2023-04-01T04:53:40;8.50;;;3.85;;
44068;SDS011;29738;51.234;5.484;2023-04-01T04:56:06;14.85;;;5.25;;
44068;SDS011;29738;51.234;5.484;2023-04-01T04:58:36;12.45;;;6.28;;
44068;SDS011;29738;51.234;5.484;2023-04-01T05:01:07;14.45;;;7.30;;
44068;SDS011;29738;51.234;5.484;2023-04-01T05:03:37;12.77;;;6.28;;
44068;SDS011;29738;51.234;5.484;2023-04-01T05:06:03;12.57;;;5.85;;
44068;SDS011;29738;51.234;5.484;2023-04-01T05:08:30;10.52;;;4.60;;
44068;SDS011;29738;51.234;5.484;2023-04-01T05:10:57;12.32;;;5.53;;
44068;SDS011;29738;51.234;5.484;2023-04-01T05:13:23;13.75;;;5.85;;
44068;SDS011;29738;51.234;5.484;2023-04-01T05:15:49;9.23;;;4.63;;
44068;SDS011;29738;51.234;5.484;2023-04-01T05:18:15;12.20;;;6.18;;
44068;SDS011;29738;51.234;5.484;2023-04-01T05:20:48;10.05;;;4.30;;
44068;SDS011;29738;51.234;5.484;2023-04-01T05:23:15;9.40;;;4.28;;
44068;SDS011;29738;51.234;5.484;2023-04-01T05:25:42;9.73;;;4.28;;
44068;SDS011;29738;51.234;5.484;2023-04-01T05:28:08;9.25;;;3.63;;
44068;SDS011;29738;51.234;5.484;2023-04-01T05:30:34;11.48;;;4.70;;
44068;SDS011;29738;51.234;5.484;2023-04-01T05:33:00;11.02;;;3.78;;
44068;SDS011;29738;51.234;5.484;2023-04-01T05:35:25;6.85;;;3.00;;
44068;SDS011;29738;51.234;5.484;2023-04-01T05:37:51;6.38;;;2.67;;
44068;SDS011;29738;51.234;5.484;2023-04-01T05:40:17;7.47;;;3.17;;
44068;SDS011;29738;51.234;5.484;2023-04-01T05:42:43;9.00;;;4.03;;
44068;SDS011;29738;51.234;5.484;2023-04-01T05:45:11;7.75;;;3.38;;
44068;SDS011;29738;51.234;5.484;2023-04-01T05:47:40;10.25;;;5.03;;
44068;SDS011;29738;51.234;5.484;2023-04-01T05:50:07;8.38;;;3.80;;
44068;SDS011;29738;51.234;5.484;2023-04-01T05:52:34;7.35;;;3.63;;
44068;SDS011;29738;51.234;5.484;2023-04-01T05:54:59;9.40;;;4.25;;
44068;SDS011;29738;51.234;5.484;2023-04-01T05:57:25;10.80;;;5.05;;
44068;SDS011;29738;51.234;5.484;2023-04-01T05:59:51;9.82;;;4.70;;
44068;SDS011;29738;51.234;5.484;2023-04-01T06:02:17;10.55;;;4.03;;
44068;SDS011;29738;51.234;5.484;2023-04-01T06:04:43;11.02;;;5.50;;
44068;SDS011;29738;51.234;5.484;2023-04-01T06:07:10;9.80;;;4.40;;
44068;SDS011;29738;51.234;5.484;2023-04-01T06:09:41;12.93;;;5.20;;
44068;SDS011;29738;51.234;5.484;2023-04-01T06:14:39;9.88;;;4.18;;
44068;SDS011;29738;51.234;5.484;2023-04-01T06:42:27;7.60;;;3.40;;
44068;SDS011;29738;51.234;5.484;2023-04-01T06:55:39;8.93;;;3.92;;
44068;SDS011;29738;51.234;5.484;2023-04-01T06:58:21;8.02;;;3.72;;
44068;SDS011;29738;51.234;5.484;2023-04-01T07:00:56;7.25;;;3.65;;
44068;SDS011;29738;51.234;5.484;2023-04-01T07:06:05;10.95;;;4.47;;
44068;SDS011;29738;51.234;5.484;2023-04-01T07:08:51;8.85;;;4.15;;
44068;SDS011;29738;51.234;5.484;2023-04-01T07:11:25;8.40;;;4.40;;
44068;SDS011;29738;51.234;5.484;2023-04-01T07:13:59;13.25;;;7.43;;
44068;SDS011;29738;51.234;5.484;2023-04-01T07:16:39;9.30;;;4.78;;
44068;SDS011;29738;51.234;5.484;2023-04-01T07:24:47;9.38;;;5.53;;
44068;SDS011;29738;51.234;5.484;2023-04-01T07:27:13;6.28;;;2.85;;
44068;SDS011;29738;51.234;5.484;2023-04-01T07:29:39;7.70;;;3.95;;
44068;SDS011;29738;51.234;5.484;2023-04-01T07:34:44;7.32;;;3.78;;
44068;SDS011;29738;51.234;5.484;2023-04-01T07:48:09;24.10;;;13.43;;
44068;SDS011;29738;51.234;5.484;2023-04-01T08:02:44;13.00;;;6.43;;
44068;SDS011;29738;51.234;5.484;2023-04-01T08:05:26;16.27;;;7.00;;
44068;SDS011;29738;51.234;5.484;2023-04-01T08:11:13;13.95;;;7.07;;
44068;SDS011;29738;51.234;5.484;2023-04-01T08:22:20;9.80;;;5.25;;
44068;SDS011;29738;51.234;5.484;2023-04-01T08:24:52;10.75;;;5.25;;
44068;SDS011;29738;51.234;5.484;2023-04-01T08:27:35;12.70;;;6.82;;
44068;SDS011;29738;51.234;5.484;2023-04-01T08:33:31;11.88;;;6.68;;
44068;SDS011;29738;51.234;5.484;2023-04-01T08:50:23;11.38;;;4.93;;
44068;SDS011;29738;51.234;5.484;2023-04-01T09:01:55;12.85;;;5.63;;
44068;SDS011;29738;51.234;5.484;2023-04-01T09:04:32;11.02;;;5.90;;
44068;SDS011;29738;51.234;5.484;2023-04-01T09:16:06;20.80;;;7.55;;
44068;SDS011;29738;51.234;5.484;2023-04-01T09:18:50;16.73;;;7.22;;
44068;SDS011;29738;51.234;5.484;2023-04-01T09:21:39;14.05;;;6.65;;
44068;SDS011;29738;51.234;5.484;2023-04-01T09:24:58;16.35;;;8.30;;
44068;SDS011;29738;51.234;5.484;2023-04-01T09:30:32;15.55;;;6.75;;
44068;SDS011;29738;51.234;5.484;2023-04-01T09:33:12;18.63;;;8.30;;
44068;SDS011;29738;51.234;5.484;2023-04-01T09:36:24;19.17;;;9.05;;
44068;SDS011;29738;51.234;5.484;2023-04-01T10:04:30;14.88;;;7.28;;
44068;SDS011;29738;51.234;5.484;2023-04-01T10:21:20;17.08;;;7.80;;
44068;SDS011;29738;51.234;5.484;2023-04-01T10:27:15;20.15;;;8.00;;
44068;SDS011;29738;51.234;5.484;2023-04-01T10:29:59;12.25;;;6.13;;
44068;SDS011;29738;51.234;5.484;2023-04-01T10:40:53;14.45;;;7.93;;
44068;SDS011;29738;51.234;5.484;2023-04-01T10:49:01;9.85;;;4.88;;
44068;SDS011;29738;51.234;5.484;2023-04-01T10:54:49;9.93;;;4.88;;
44068;SDS011;29738;51.234;5.484;2023-04-01T10:57:55;9.65;;;4.60;;
44068;SDS011;29738;51.234;5.484;2023-04-01T11:00:53;8.60;;;4.72;;
44068;SDS011;29738;51.234;5.484;2023-04-01T11:28:57;9.15;;;5.00;;
44068;SDS011;29738;51.234;5.484;2023-04-01T11:31:46;8.85;;;4.20;;
44068;SDS011;29738;51.234;5.484;2023-04-01T11:42:28;7.50;;;4.03;;
44068;SDS011;29738;51.234;5.484;2023-04-01T11:50:45;6.93;;;3.28;;
44068;SDS011;29738;51.234;5.484;2023-04-01T11:53:19;8.40;;;3.38;;
44068;SDS011;29738;51.234;5.484;2023-04-01T11:58:49;5.30;;;2.38;;
44068;SDS011;29738;51.234;5.484;2023-04-01T12:04:17;6.78;;;2.53;;
44068;SDS011;29738;51.234;5.484;2023-04-01T12:10:20;5.60;;;2.70;;
44068;SDS011;29738;51.234;5.484;2023-04-01T12:21:37;4.82;;;2.15;;
44068;SDS011;29738;51.234;5.484;2023-04-01T12:24:20;5.73;;;2.90;;
44068;SDS011;29738;51.234;5.484;2023-04-01T12:29:51;6.88;;;3.60;;
44068;SDS011;29738;51.234;5.484;2023-04-01T12:38:38;8.68;;;2.20;;
44068;SDS011;29738;51.234;5.484;2023-04-01T12:55:41;6.00;;;2.72;;
44068;SDS011;29738;51.234;5.484;2023-04-01T13:01:17;6.78;;;2.53;;
44068;SDS011;29738;51.234;5.484;2023-04-01T13:17:33;4.50;;;1.98;;
44068;SDS011;29738;51.234;5.484;2023-04-01T13:28:34;5.80;;;2.25;;
44068;SDS011;29738;51.234;5.484;2023-04-01T13:33:44;4.75;;;2.33;;
44068;SDS011;29738;51.234;5.484;2023-04-01T13:44:03;8.27;;;3.05;;
44068;SDS011;29738;51.234;5.484;2023-04-01T13:55:10;6.72;;;2.92;;
44068;SDS011;29738;51.234;5.484;2023-04-01T14:01:22;6.78;;;2.95;;
44068;SDS011;29738;51.234;5.484;2023-04-01T14:04:20;7.22;;;2.47;;
44068;SDS011;29738;51.234;5.484;2023-04-01T14:09:45;7.03;;;2.88;;
44068;SDS011;29738;51.234;5.484;2023-04-01T14:12:30;7.22;;;3.70;;
44068;SDS011;29738;51.234;5.484;2023-04-01T14:32:24;8.98;;;3.70;;
44068;SDS011;29738;51.234;5.484;2023-04-01T14:46:55;6.00;;;2.28;;
44068;SDS011;29738;51.234;5.484;2023-04-01T14:49:53;7.55;;;3.22;;
44068;SDS011;29738;51.234;5.484;2023-04-01T14:52:31;5.95;;;2.85;;
44068;SDS011;29738;51.234;5.484;2023-04-01T14:55:01;6.57;;;3.10;;
44068;SDS011;29738;51.234;5.484;2023-04-01T14:57:42;8.27;;;3.55;;
44068;SDS011;29738;51.234;5.484;2023-04-01T15:03:19;6.00;;;3.17;;
44068;SDS011;29738;51.234;5.484;2023-04-01T15:06:00;7.18;;;3.90;;
44068;SDS011;29738;51.234;5.484;2023-04-01T15:08:54;7.32;;;3.53;;
44068;SDS011;29738;51.234;5.484;2023-04-01T15:11:51;9.65;;;4.10;;
44068;SDS011;29738;51.234;5.484;2023-04-01T15:17:38;8.18;;;3.50;;
44068;SDS011;29738;51.234;5.484;2023-04-01T15:28:42;7.00;;;3.20;;
44068;SDS011;29738;51.234;5.484;2023-04-01T15:31:25;7.40;;;3.72;;
44068;SDS011;29738;51.234;5.484;2023-04-01T15:39:18;6.35;;;3.22;;
44068;SDS011;29738;51.234;5.484;2023-04-01T15:42:10;8.35;;;3.53;;
44068;SDS011;29738;51.234;5.484;2023-04-01T15:53:34;7.85;;;2.88;;
44068;SDS011;29738;51.234;5.484;2023-04-01T16:07:36;4.35;;;2.00;;
44068;SDS011;29738;51.234;5.484;2023-04-01T16:15:37;4.70;;;1.90;;
44068;SDS011;29738;51.234;5.484;2023-04-01T16:23:51;3.63;;;1.42;;
44068;SDS011;29738;51.234;5.484;2023-04-01T16:31:46;4.38;;;1.83;;
44068;SDS011;29738;51.234;5.484;2023-04-01T16:34:19;4.40;;;1.95;;
44068;SDS011;29738;51.234;5.484;2023-04-01T16:36:54;5.38;;;2.50;;
44068;SDS011;29738;51.234;5.484;2023-04-01T16:39:43;5.80;;;2.40;;
44068;SDS011;29738;51.234;5.484;2023-04-01T16:45:26;6.43;;;2.53;;
44068;SDS011;29738;51.234;5.484;2023-04-01T16:48:06;5.88;;;2.63;;
44068;SDS011;29738;51.234;5.484;2023-04-01T16:50:48;7.30;;;3.10;;
44068;SDS011;29738;51.234;5.484;2023-04-01T16:56:10;6.95;;;2.70;;
44068;SDS011;29738;51.234;5.484;2023-04-01T17:01:53;8.23;;;3.50;;
44068;SDS011;29738;51.234;5.484;2023-04-01T17:07:05;7.20;;;3.45;;
44068;SDS011;29738;51.234;5.484;2023-04-01T17:09:51;7.38;;;3.22;;
44068;SDS011;29738;51.234;5.484;2023-04-01T17:15:03;6.38;;;2.92;;
44068;SDS011;29738;51.234;5.484;2023-04-01T17:20:31;5.80;;;2.72;;
44068;SDS011;29738;51.234;5.484;2023-04-01T17:23:13;6.38;;;2.70;;
44068;SDS011;29738;51.234;5.484;2023-04-01T17:39:42;17.73;;;11.40;;
44068;SDS011;29738;51.234;5.484;2023-04-01T17:42:34;7.03;;;3.75;;
44068;SDS011;29738;51.234;5.484;2023-04-01T17:56:16;8.02;;;4.10;;
44068;SDS011;29738;51.234;5.484;2023-04-01T17:59:11;9.50;;;5.00;;
44068;SDS011;29738;51.234;5.484;2023-04-01T18:18:07;11.43;;;5.07;;
44068;SDS011;29738;51.234;5.484;2023-04-01T18:20:54;10.90;;;4.80;;
44068;SDS011;29738;51.234;5.484;2023-04-01T18:26:13;13.60;;;6.20;;
44068;SDS011;29738;51.234;5.484;2023-04-01T18:29:02;15.60;;;7.32;;
44068;SDS011;29738;51.234;5.484;2023-04-01T18:31:39;15.65;;;7.28;;
44068;SDS011;29738;51.234;5.484;2023-04-01T18:34:31;14.73;;;7.00;;
44068;SDS011;29738;51.234;5.484;2023-04-01T18:39:49;16.45;;;7.38;;
44068;SDS011;29738;51.234;5.484;2023-04-01T18:42:41;18.25;;;8.43;;
44068;SDS011;29738;51.234;5.484;2023-04-01T18:45:21;16.75;;;7.75;;
44068;SDS011;29738;51.234;5.484;2023-04-01T18:48:03;20.02;;;7.63;;
44068;SDS011;29738;51.234;5.484;2023-04-01T18:56:29;21.10;;;9.00;;
44068;SDS011;29738;51.234;5.484;2023-04-01T18:59:01;15.73;;;7.30;;
44068;SDS011;29738;51.234;5.484;2023-04-01T19:05:04;20.05;;;8.80;;
44068;SDS011;29738;51.234;5.484;2023-04-01T19:10:12;21.20;;;10.60;;
44068;SDS011;29738;51.234;5.484;2023-04-01T19:15:44;24.35;;;10.32;;
44068;SDS011;29738;51.234;5.484;2023-04-01T19:19:00;16.20;;;7.80;;
44068;SDS011;29738;51.234;5.484;2023-04-01T19:21:37;21.90;;;9.35;;
44068;SDS011;29738;51.234;5.484;2023-04-01T19:27:34;19.27;;;8.85;;
44068;SDS011;29738;51.234;5.484;2023-04-01T19:33:05;16.98;;;8.38;;
44068;SDS011;29738;51.234;5.484;2023-04-01T19:46:47;15.27;;;6.07;;
44068;SDS011;29738;51.234;5.484;2023-04-01T19:49:36;11.93;;;5.57;;
44068;SDS011;29738;51.234;5.484;2023-04-01T19:52:14;13.60;;;5.65;;
44068;SDS011;29738;51.234;5.484;2023-04-01T19:55:03;14.55;;;6.13;;
44068;SDS011;29738;51.234;5.484;2023-04-01T20:00:56;12.48;;;5.05;;
44068;SDS011;29738;51.234;5.484;2023-04-01T20:06:04;12.10;;;5.93;;
44068;SDS011;29738;51.234;5.484;2023-04-01T20:08:43;12.07;;;5.07;;
44068;SDS011;29738;51.234;5.484;2023-04-01T20:11:30;12.10;;;5.40;;
44068;SDS011;29738;51.234;5.484;2023-04-01T20:14:07;16.00;;;6.70;;
44068;SDS011;29738;51.234;5.484;2023-04-01T20:19:39;15.82;;;6.38;;
44068;SDS011;29738;51.234;5.484;2023-04-01T20:22:35;18.27;;;7.82;;
44068;SDS011;29738;51.234;5.484;2023-04-01T20:25:19;14.35;;;6.63;;
44068;SDS011;29738;51.234;5.484;2023-04-01T20:27:58;14.30;;;6.35;;
44068;SDS011;29738;51.234;5.484;2023-04-01T20:36:21;12.70;;;6.28;;
44068;SDS011;29738;51.234;5.484;2023-04-01T20:41:55;11.90;;;4.93;;
44068;SDS011;29738;51.234;5.484;2023-04-01T20:44:40;10.02;;;4.60;;
44068;SDS011;29738;51.234;5.484;2023-04-01T20:47:31;15.75;;;6.57;;
44068;SDS011;29738;51.234;5.484;2023-04-01T20:53:11;16.83;;;7.45;;
44068;SDS011;29738;51.234;5.484;2023-04-01T20:56:26;19.00;;;7.68;;
44068;SDS011;29738;51.234;5.484;2023-04-01T21:15:14;16.27;;;5.55;;
44068;SDS011;29738;51.234;5.484;2023-04-01T21:17:58;11.73;;;4.93;;
44068;SDS011;29738;51.234;5.484;2023-04-01T21:20:53;9.18;;;4.03;;
44068;SDS011;29738;51.234;5.484;2023-04-01T21:26:26;10.63;;;4.38;;
44068;SDS011;29738;51.234;5.484;2023-04-01T21:29:09;10.70;;;4.90;;
44068;SDS011;29738;51.234;5.484;2023-04-01T21:32:25;10.10;;;4.28;;
44068;SDS011;29738;51.234;5.484;2023-04-01T21:34:48;10.35;;;4.85;;
44068;SDS011;29738;51.234;5.484;2023-04-01T21:37:44;10.60;;;4.63;;
44068;SDS011;29738;51.234;5.484;2023-04-01T21:40:16;12.48;;;4.88;;
44068;SDS011;29738;51.234;5.484;2023-04-01T21:45:46;16.90;;;7.50;;
44068;SDS011;29738;51.234;5.484;2023-04-01T21:57:17;9.60;;;5.43;;
44068;SDS011;29738;51.234;5.484;2023-04-01T22:02:40;14.25;;;7.82;;
44068;SDS011;29738;51.234;5.484;2023-04-01T22:05:13;11.32;;;6.75;;
44068;SDS011;29738;51.234;5.484;2023-04-01T22:10:50;18.15;;;8.23;;
44068;SDS011;29738;51.234;5.484;2023-04-01T22:13:41;15.65;;;6.68;;
44068;SDS011;29738;51.234;5.484;2023-04-01T22:19:04;11.48;;;5.03;;
44068;SDS011;29738;51.234;5.484;2023-04-01T22:25:16;13.60;;;6.88;;
44068;SDS011;29738;51.234;5.484;2023-04-01T22:28:13;20.85;;;8.30;;
44068;SDS011;29738;51.234;5.484;2023-04-01T22:31:00;18.08;;;7.57;;
44068;SDS011;29738;51.234;5.484;2023-04-01T22:39:21;19.73;;;8.35;;
44068;SDS011;29738;51.234;5.484;2023-04-01T22:41:55;19.27;;;8.00;;
44068;SDS011;29738;51.234;5.484;2023-04-01T22:47:25;17.85;;;7.20;;
44068;SDS011;29738;51.234;5.484;2023-04-01T22:49:59;17.92;;;7.50;;
44068;SDS011;29738;51.234;5.484;2023-04-01T22:52:43;17.08;;;8.38;;
44068;SDS011;29738;51.234;5.484;2023-04-01T22:55:25;9.18;;;5.22;;
44068;SDS011;29738;51.234;5.484;2023-04-01T23:00:28;19.17;;;8.65;;
44068;SDS011;29738;51.234;5.484;2023-04-01T23:03:14;17.58;;;7.45;;
44068;SDS011;29738;51.234;5.484;2023-04-01T23:05:51;20.60;;;8.57;;
44068;SDS011;29738;51.234;5.484;2023-04-01T23:11:26;13.40;;;6.82;;
44068;SDS011;29738;51.234;5.484;2023-04-01T23:16:56;15.95;;;6.55;;
44068;SDS011;29738;51.234;5.484;2023-04-01T23:22:10;16.77;;;8.15;;
44068;SDS011;29738;51.234;5.484;2023-04-01T23:33:10;10.45;;;4.88;;
44068;SDS011;29738;51.234;5.484;2023-04-01T23:38:36;8.35;;;3.83;;
44068;SDS011;29738;51.234;5.484;2023-04-01T23:41:04;15.75;;;7.57;;
44068;SDS011;29738;51.234;5.484;2023-04-01T23:43:32;20.38;;;6.40;;
44068;SDS011;29738;51.234;5.484;2023-04-01T23:46:01;11.13;;;4.85;;
44068;SDS011;29738;51.234;5.484;2023-04-01T23:48:42;14.00;;;5.70;;
44068;SDS011;29738;51.234;5.484;2023-04-01T23:51:14;9.13;;;4.43;;
44068;SDS011;29738;51.234;5.484;2023-04-01T23:53:47;11.90;;;5.30;;
44068;SDS011;29738;51.234;5.484;2023-04-01T23:56:33;13.93;;;6.30;;
44068;SDS011;29738;51.234;5.484;2023-04-01T23:59:03;9.25;;;4.28;;
